sensor_id;sensor_type;location;lat;lon;timestamp;pressure;altitude;pressure_sealevel;temperature;humidity
6134;BME280;3098;42.678;23.364;2023-12-20T00:04:48;95019.69;;;-2.91;100.00
6134;BME280;3098;42.678;23.364;2023-12-20T01:07:31;95323.13;;;-1.16;100.00
6134;BME280;3098;42.678;23.364;2023-12-20T01:10:27;94967.69;;;-3.55;100.00
6134;BME280;3098;42.678;23.364;2023-12-20T01:13:04;95309.53;;;-1.18;100.00
6134;BME280;3098;42.678;23.364;2023-12-20T01:16:04;95308.31;;;-1.15;100.00
6134;BME280;3098;42.678;23.364;2023-12-20T01:18:52;95295.84;;;-1.25;100.00
6134;BME280;3098;42.678;23.364;2023-12-20T01:21:24;95255.25;;;-1.67;100.00
6134;BME280;3098;42.678;23.364;2023-12-20T02:35:07;95166.66;;;-3.14;100.00
6134;BME280;3098;42.678;23.364;2023-12-20T02:37:42;94990.59;;;-4.31;100.00
6134;BME280;3098;42.678;23.364;2023-12-20T02:40:32;95200.03;;;-2.81;100.00
6134;BME280;3098;42.678;23.364;2023-12-20T02:43:18;95015.84;;;-4.02;100.00
6134;BME280;3098;42.678;23.364;2023-12-20T02:45:54;95025.00;;;-3.81;100.00
6134;BME280;3098;42.678;23.364;2023-12-20T02:48:31;95193.00;;;-2.93;100.00
6134;BME280;3098;42.678;23.364;2023-12-20T02:53:53;94882.34;;;-5.02;100.00
6134;BME280;3098;42.678;23.364;2023-12-20T02:56:27;95012.72;;;-4.29;100.00
6134;BME280;3098;42.678;23.364;2023-12-20T02:59:07;95078.63;;;-3.82;100.00
6134;BME280;3098;42.678;23.364;2023-12-20T03:01:45;95194.41;;;-2.97;100.00
6134;BME280;3098;42.678;23.364;2023-12-20T03:04:30;94867.25;;;-5.05;100.00
6134;BME280;3098;42.678;23.364;2023-12-20T03:07:09;95198.25;;;-2.99;100.00
6134;BME280;3098;42.678;23.364;2023-12-20T03:09:49;95082.97;;;-3.58;100.00
6134;BME280;3098;42.678;23.364;2023-12-20T03:12:32;95107.44;;;-3.54;100.00
6134;BME280;3098;42.678;23.364;2023-12-20T03:15:17;94899.19;;;-4.93;100.00
6134;BME280;3098;42.678;23.364;2023-12-20T03:18:01;95158.75;;;-3.19;100.00
6134;BME280;3098;42.678;23.364;2023-12-20T03:20:39;95211.50;;;-2.71;100.00
6134;BME280;3098;42.678;23.364;2023-12-20T03:23:18;94825.97;;;-4.93;100.00
6134;BME280;3098;42.678;23.364;2023-12-20T03:26:10;94991.44;;;-3.94;100.00
6134;BME280;3098;42.678;23.364;2023-12-20T03:28:58;95198.72;;;-2.72;100.00
6134;BME280;3098;42.678;23.364;2023-12-20T03:31:34;95181.44;;;-2.78;100.00
6134;BME280;3098;42.678;23.364;2023-12-20T03:34:08;95199.63;;;-2.78;100.00
6134;BME280;3098;42.678;23.364;2023-12-20T03:36:45;95168.59;;;-2.92;100.00
6134;BME280;3098;42.678;23.364;2023-12-20T03:39:26;94842.47;;;-5.12;100.00
6134;BME280;3098;42.678;23.364;2023-12-20T03:51:07;95058.59;;;-3.57;100.00
6134;BME280;3098;42.678;23.364;2023-12-20T03:53:47;95170.75;;;-2.88;100.00
6134;BME280;3098;42.678;23.364;2023-12-20T03:56:30;94971.06;;;-4.27;100.00
6134;BME280;3098;42.678;23.364;2023-12-20T03:59:06;94833.16;;;-4.95;100.00
6134;BME280;3098;42.678;23.364;2023-12-20T04:01:47;94861.91;;;-4.85;100.00
6134;BME280;3098;42.678;23.364;2023-12-20T04:04:35;94825.31;;;-5.07;100.00
6134;BME280;3098;42.678;23.364;2023-12-20T04:41:10;94812.88;;;-5.66;100.00
6134;BME280;3098;42.678;23.364;2023-12-20T04:43:49;94999.78;;;-4.29;100.00
6134;BME280;3098;42.678;23.364;2023-12-20T04:46:32;94809.03;;;-5.57;100.00
6134;BME280;3098;42.678;23.364;2023-12-20T04:49:13;94936.16;;;-4.86;100.00
6134;BME280;3098;42.678;23.364;2023-12-20T04:51:55;94766.22;;;-5.96;100.00
6134;BME280;3098;42.678;23.364;2023-12-20T04:54:26;94984.56;;;-4.43;100.00
6134;BME280;3098;42.678;23.364;2023-12-20T04:57:05;94790.88;;;-5.75;100.00
6134;BME280;3098;42.678;23.364;2023-12-20T04:59:42;95028.25;;;-4.29;100.00
6134;BME280;3098;42.678;23.364;2023-12-20T05:02:22;94987.72;;;-4.41;100.00
6134;BME280;3098;42.678;23.364;2023-12-20T05:04:59;94812.88;;;-5.66;100.00
6134;BME280;3098;42.678;23.364;2023-12-20T05:07:41;94891.81;;;-5.14;100.00
6134;BME280;3098;42.678;23.364;2023-12-20T06:51:45;95008.63;;;-2.86;100.00
6134;BME280;3098;42.678;23.364;2023-12-20T06:57:11;94875.16;;;-3.43;100.00
6134;BME280;3098;42.678;23.364;2023-12-20T06:59:48;95064.66;;;-2.14;100.00
6134;BME280;3098;42.678;23.364;2023-12-20T07:02:25;95069.88;;;-1.91;100.00
6134;BME280;3098;42.678;23.364;2023-12-20T07:05:22;95058.69;;;-1.91;100.00
6134;BME280;3098;42.678;23.364;2023-12-20T08:19:50;94769.59;;;-1.32;100.00
6134;BME280;3098;42.678;23.364;2023-12-20T08:22:27;94927.25;;;0.24;100.00
6134;BME280;3098;42.678;23.364;2023-12-20T08:25:00;94795.28;;;-0.85;100.00
6134;BME280;3098;42.678;23.364;2023-12-20T08:27:40;95030.59;;;0.69;100.00
6134;BME280;3098;42.678;23.364;2023-12-20T08:30:09;94994.06;;;0.47;100.00
6134;BME280;3098;42.678;23.364;2023-12-20T08:32:36;94962.38;;;0.60;100.00
6134;BME280;3098;42.678;23.364;2023-12-20T08:35:08;94995.84;;;-0.14;100.00
6134;BME280;3098;42.678;23.364;2023-12-20T08:37:38;94996.66;;;0.25;100.00
6134;BME280;3098;42.678;23.364;2023-12-20T08:40:08;95005.16;;;0.37;100.00
6134;BME280;3098;42.678;23.364;2023-12-20T08:42:36;94813.19;;;-1.22;100.00
6134;BME280;3098;42.678;23.364;2023-12-20T08:45:05;94995.38;;;-0.44;100.00
6134;BME280;3098;42.678;23.364;2023-12-20T08:47:34;94858.66;;;-1.41;100.00
6134;BME280;3098;42.678;23.364;2023-12-20T08:50:04;94745.03;;;-2.02;100.00
6134;BME280;3098;42.678;23.364;2023-12-20T08:52:34;94955.19;;;-0.48;100.00
6134;BME280;3098;42.678;23.364;2023-12-20T08:55:01;94979.72;;;-0.11;100.00
6134;BME280;3098;42.678;23.364;2023-12-20T08:57:30;94835.34;;;-0.86;100.00
6134;BME280;3098;42.678;23.364;2023-12-20T09:00:01;94727.16;;;-1.16;100.00
6134;BME280;3098;42.678;23.364;2023-12-20T09:02:29;94911.97;;;0.33;100.00
6134;BME280;3098;42.678;23.364;2023-12-20T09:04:57;94946.41;;;0.78;100.00
6134;BME280;3098;42.678;23.364;2023-12-20T09:07:25;94878.13;;;0.16;100.00
6134;BME280;3098;42.678;23.364;2023-12-20T09:09:58;94815.44;;;-0.37;100.00
6134;BME280;3098;42.678;23.364;2023-12-20T09:12:28;94938.19;;;0.65;100.00
6134;BME280;3098;42.678;23.364;2023-12-20T09:14:56;94860.22;;;0.03;100.00
6134;BME280;3098;42.678;23.364;2023-12-20T09:17:26;94681.16;;;-1.10;100.00
6134;BME280;3098;42.678;23.364;2023-12-20T09:19:54;94729.63;;;-0.87;100.00
6134;BME280;3098;42.678;23.364;2023-12-20T09:22:26;94829.59;;;-0.12;100.00
6134;BME280;3098;42.678;23.364;2023-12-20T09:24:56;94846.56;;;0.39;100.00
6134;BME280;3098;42.678;23.364;2023-12-20T09:27:25;94901.16;;;0.68;100.00
6134;BME280;3098;42.678;23.364;2023-12-20T09:29:54;94802.25;;;-0.09;100.00
6134;BME280;3098;42.678;23.364;2023-12-20T09:32:27;94867.44;;;0.66;100.00
6134;BME280;3098;42.678;23.364;2023-12-20T09:34:56;94796.56;;;0.21;100.00
6134;BME280;3098;42.678;23.364;2023-12-20T09:37:30;94803.78;;;0.14;100.00
6134;BME280;3098;42.678;23.364;2023-12-20T09:42:56;94470.63;;;-2.20;100.00
6134;BME280;3098;42.678;23.364;2023-12-20T09:45:31;94709.72;;;-0.55;100.00
6134;BME280;3098;42.678;23.364;2023-12-20T09:48:01;94839.00;;;0.65;100.00
6134;BME280;3098;42.678;23.364;2023-12-20T09:50:38;94722.31;;;0.02;100.00
6134;BME280;3098;42.678;23.364;2023-12-20T09:53:14;94705.88;;;0.28;100.00
6134;BME280;3098;42.678;23.364;2023-12-20T09:55:45;94501.59;;;-1.10;100.00
6134;BME280;3098;42.678;23.364;2023-12-20T09:58:25;94790.75;;;0.72;100.00
6134;BME280;3098;42.678;23.364;2023-12-20T10:00:55;94825.41;;;1.31;100.00
6134;BME280;3098;42.678;23.364;2023-12-20T10:03:25;94406.63;;;-1.61;100.00
6134;BME280;3098;42.678;23.364;2023-12-20T10:06:02;94471.00;;;-0.71;100.00
6134;BME280;3098;42.678;23.364;2023-12-20T10:08:47;94689.50;;;1.16;100.00
6134;BME280;3098;42.678;23.364;2023-12-20T10:11:31;94802.28;;;2.07;100.00
6134;BME280;3098;42.678;23.364;2023-12-20T10:16:47;94377.03;;;-1.01;100.00
6134;BME280;3098;42.678;23.364;2023-12-20T10:19:17;94533.84;;;0.53;100.00
6134;BME280;3098;42.678;23.364;2023-12-20T10:21:52;94622.78;;;1.81;100.00
6134;BME280;3098;42.678;23.364;2023-12-20T10:29:43;94500.81;;;3.53;100.00
6134;BME280;3098;42.678;23.364;2023-12-20T10:32:29;94527.19;;;4.82;100.00
6134;BME280;3098;42.678;23.364;2023-12-20T10:34:59;94559.81;;;3.89;100.00
6134;BME280;3098;42.678;23.364;2023-12-20T10:37:38;94695.66;;;5.33;100.00
6134;BME280;3098;42.678;23.364;2023-12-20T10:40:10;94510.41;;;5.20;100.00
6134;BME280;3098;42.678;23.364;2023-12-20T10:42:53;94374.81;;;5.65;100.00
6134;BME280;3098;42.678;23.364;2023-12-20T10:45:22;94370.66;;;4.57;100.00
6134;BME280;3098;42.678;23.364;2023-12-20T10:47:56;94553.59;;;4.43;100.00
6134;BME280;3098;42.678;23.364;2023-12-20T10:50:28;94366.25;;;2.56;100.00
6134;BME280;3098;42.678;23.364;2023-12-20T10:53:00;94663.81;;;5.76;100.00
6134;BME280;3098;42.678;23.364;2023-12-20T10:55:37;94551.97;;;5.42;100.00
6134;BME280;3098;42.678;23.364;2023-12-20T10:58:09;94645.66;;;4.85;100.00
6134;BME280;3098;42.678;23.364;2023-12-20T11:00:42;94658.22;;;4.31;100.00
6134;BME280;3098;42.678;23.364;2023-12-20T11:03:18;94637.75;;;5.56;100.00
6134;BME280;3098;42.678;23.364;2023-12-20T11:05:53;94647.66;;;6.07;100.00
6134;BME280;3098;42.678;23.364;2023-12-20T11:08:36;94293.88;;;3.33;100.00
6134;BME280;3098;42.678;23.364;2023-12-20T11:11:14;94307.94;;;4.37;100.00
6134;BME280;3098;42.678;23.364;2023-12-20T11:13:55;94571.50;;;6.43;100.00
6134;BME280;3098;42.678;23.364;2023-12-20T11:16:24;94626.66;;;7.67;100.00
6134;BME280;3098;42.678;23.364;2023-12-20T11:21:39;94250.75;;;3.49;100.00
6134;BME280;3098;42.678;23.364;2023-12-20T11:24:08;94626.88;;;6.24;100.00
6134;BME280;3098;42.678;23.364;2023-12-20T11:26:47;94369.97;;;3.57;100.00
6134;BME280;3098;42.678;23.364;2023-12-20T11:29:35;94497.81;;;4.98;100.00
6134;BME280;3098;42.678;23.364;2023-12-20T11:32:29;94217.16;;;3.04;100.00
6134;BME280;3098;42.678;23.364;2023-12-20T11:34:59;94374.50;;;4.83;100.00
6134;BME280;3098;42.678;23.364;2023-12-20T11:40:11;94436.31;;;6.61;100.00
6134;BME280;3098;42.678;23.364;2023-12-20T11:42:43;94265.97;;;4.88;100.00
6134;BME280;3098;42.678;23.364;2023-12-20T11:45:20;94219.84;;;1.92;100.00
6134;BME280;3098;42.678;23.364;2023-12-20T11:47:57;94552.69;;;4.00;100.00
6134;BME280;3098;42.678;23.364;2023-12-20T11:50:44;94201.56;;;1.33;100.00
6134;BME280;3098;42.678;23.364;2023-12-20T11:53:18;94569.34;;;3.36;100.00
6134;BME280;3098;42.678;23.364;2023-12-20T12:01:06;94547.97;;;2.30;100.00
6134;BME280;3098;42.678;23.364;2023-12-20T12:03:41;94432.47;;;1.57;100.00
6134;BME280;3098;42.678;23.364;2023-12-20T12:06:12;94301.59;;;0.43;100.00
6134;BME280;3098;42.678;23.364;2023-12-20T12:08:45;94569.41;;;2.37;100.00
6134;BME280;3098;42.678;23.364;2023-12-20T12:11:33;94527.69;;;2.76;100.00
6134;BME280;3098;42.678;23.364;2023-12-20T12:14:07;94372.13;;;2.28;100.00
6134;BME280;3098;42.678;23.364;2023-12-20T12:16:38;94514.56;;;3.35;100.00
6134;BME280;3098;42.678;23.364;2023-12-20T12:19:14;94523.28;;;2.66;100.00
6134;BME280;3098;42.678;23.364;2023-12-20T12:22:04;94169.38;;;0.18;100.00
6134;BME280;3098;42.678;23.364;2023-12-20T12:27:33;94356.63;;;2.47;100.00
6134;BME280;3098;42.678;23.364;2023-12-20T12:30:03;94176.94;;;1.44;100.00
6134;BME280;3098;42.678;23.364;2023-12-20T12:32:41;94295.81;;;2.60;100.00
6134;BME280;3098;42.678;23.364;2023-12-20T12:35:20;94494.78;;;3.53;100.00
6134;BME280;3098;42.678;23.364;2023-12-20T12:38:00;94356.56;;;2.57;100.00
6134;BME280;3098;42.678;23.364;2023-12-20T12:40:38;94411.41;;;3.55;100.00
6134;BME280;3098;42.678;23.364;2023-12-20T12:43:39;94392.84;;;3.12;100.00
6134;BME280;3098;42.678;23.364;2023-12-20T12:46:13;94416.38;;;3.56;100.00
6134;BME280;3098;42.678;23.364;2023-12-20T12:48:43;94229.84;;;1.01;100.00
6134;BME280;3098;42.678;23.364;2023-12-20T12:51:18;94430.59;;;1.83;100.00
6134;BME280;3098;42.678;23.364;2023-12-20T12:53:47;94153.19;;;0.41;100.00
6134;BME280;3098;42.678;23.364;2023-12-20T12:56:16;94371.88;;;1.30;100.00
6134;BME280;3098;42.678;23.364;2023-12-20T12:58:47;94146.69;;;-0.07;100.00
6134;BME280;3098;42.678;23.364;2023-12-20T13:01:18;94419.94;;;1.64;100.00
6134;BME280;3098;42.678;23.364;2023-12-20T13:06:34;94265.59;;;0.35;100.00
6134;BME280;3098;42.678;23.364;2023-12-20T13:09:07;94121.97;;;-1.06;100.00
6134;BME280;3098;42.678;23.364;2023-12-20T13:11:50;94443.47;;;1.19;100.00
6134;BME280;3098;42.678;23.364;2023-12-20T13:14:26;94425.16;;;1.39;100.00
6134;BME280;3098;42.678;23.364;2023-12-20T13:16:58;94383.63;;;0.87;100.00
6134;BME280;3098;42.678;23.364;2023-12-20T13:19:27;94377.88;;;1.00;100.00
6134;BME280;3098;42.678;23.364;2023-12-20T13:22:06;94416.00;;;1.11;100.00
6134;BME280;3098;42.678;23.364;2023-12-20T13:24:38;94122.25;;;-0.93;100.00
6134;BME280;3098;42.678;23.364;2023-12-20T13:27:11;94534.91;;;1.44;100.00
6134;BME280;3098;42.678;23.364;2023-12-20T13:29:49;94440.16;;;0.51;100.00
6134;BME280;3098;42.678;23.364;2023-12-20T13:32:24;94268.03;;;-0.36;100.00
6134;BME280;3098;42.678;23.364;2023-12-20T13:34:57;94276.66;;;-0.30;100.00
6134;BME280;3098;42.678;23.364;2023-12-20T13:37:33;94289.91;;;-0.42;100.00
6134;BME280;3098;42.678;23.364;2023-12-20T13:40:03;94142.53;;;-1.52;100.00
6134;BME280;3098;42.678;23.364;2023-12-20T13:42:42;94362.53;;;-0.04;100.00
6134;BME280;3098;42.678;23.364;2023-12-20T13:45:18;94118.66;;;-1.86;100.00
6134;BME280;3098;42.678;23.364;2023-12-20T13:48:11;94355.19;;;-0.07;100.00
6134;BME280;3098;42.678;23.364;2023-12-20T13:50:41;94480.97;;;0.83;100.00
6134;BME280;3098;42.678;23.364;2023-12-20T13:53:20;94258.81;;;-0.64;100.00
6134;BME280;3098;42.678;23.364;2023-12-20T13:55:51;94499.75;;;0.75;100.00
6134;BME280;3098;42.678;23.364;2023-12-20T13:58:33;94348.78;;;-0.41;100.00
6134;BME280;3098;42.678;23.364;2023-12-20T14:01:03;94240.38;;;-1.04;100.00
6134;BME280;3098;42.678;23.364;2023-12-20T14:03:38;94287.53;;;-0.48;100.00
6134;BME280;3098;42.678;23.364;2023-12-20T14:06:11;94366.22;;;0.11;100.00
6134;BME280;3098;42.678;23.364;2023-12-20T14:08:47;94297.50;;;-0.35;100.00
6134;BME280;3098;42.678;23.364;2023-12-20T14:11:18;94158.13;;;-1.57;100.00
6134;BME280;3098;42.678;23.364;2023-12-20T14:13:49;94486.47;;;0.81;100.00
6134;BME280;3098;42.678;23.364;2023-12-20T14:16:24;94408.53;;;0.23;100.00
6134;BME280;3098;42.678;23.364;2023-12-20T14:19:00;94366.44;;;-0.01;100.00
6134;BME280;3098;42.678;23.364;2023-12-20T14:26:58;94127.16;;;-1.58;100.00
6134;BME280;3098;42.678;23.364;2023-12-20T14:29:42;94478.28;;;0.57;100.00
6134;BME280;3098;42.678;23.364;2023-12-20T14:32:23;94157.94;;;-1.45;100.00
6134;BME280;3098;42.678;23.364;2023-12-20T14:35:02;94277.75;;;-0.73;100.00
6134;BME280;3098;42.678;23.364;2023-12-20T14:37:38;94129.09;;;-1.81;100.00
6134;BME280;3098;42.678;23.364;2023-12-20T14:42:56;94453.78;;;0.02;100.00
6134;BME280;3098;42.678;23.364;2023-12-20T14:45:27;94451.47;;;0.05;100.00
6134;BME280;3098;42.678;23.364;2023-12-20T14:47:55;94429.81;;;0.05;100.00
6134;BME280;3098;42.678;23.364;2023-12-20T14:50:32;94173.91;;;-1.68;100.00
6134;BME280;3098;42.678;23.364;2023-12-20T14:53:04;94508.19;;;0.40;100.00
6134;BME280;3098;42.678;23.364;2023-12-20T14:55:33;94304.38;;;-1.08;100.00
6134;BME280;3098;42.678;23.364;2023-12-20T14:58:05;94496.41;;;0.27;100.00
6134;BME280;3098;42.678;23.364;2023-12-20T15:00:33;94518.63;;;0.35;100.00
6134;BME280;3098;42.678;23.364;2023-12-20T15:03:03;94495.91;;;0.30;100.00
6134;BME280;3098;42.678;23.364;2023-12-20T15:05:35;94496.44;;;0.32;100.00
6134;BME280;3098;42.678;23.364;2023-12-20T15:08:05;94516.78;;;0.35;100.00
6134;BME280;3098;42.678;23.364;2023-12-20T15:10:34;94499.63;;;0.39;100.00
6134;BME280;3098;42.678;23.364;2023-12-20T15:13:11;94368.78;;;-0.51;100.00
6134;BME280;3098;42.678;23.364;2023-12-20T15:15:40;94491.44;;;0.26;100.00
6134;BME280;3098;42.678;23.364;2023-12-20T15:18:09;94472.56;;;0.09;100.00
6134;BME280;3098;42.678;23.364;2023-12-20T15:20:38;94165.75;;;-1.82;100.00
6134;BME280;3098;42.678;23.364;2023-12-20T15:23:09;94295.31;;;-1.00;100.00
6134;BME280;3098;42.678;23.364;2023-12-20T15:25:37;94425.31;;;-0.05;100.00
6134;BME280;3098;42.678;23.364;2023-12-20T15:28:05;94399.59;;;-0.38;100.00
6134;BME280;3098;42.678;23.364;2023-12-20T15:30:34;94506.88;;;0.32;100.00
6134;BME280;3098;42.678;23.364;2023-12-20T15:33:02;94438.03;;;-0.14;100.00
6134;BME280;3098;42.678;23.364;2023-12-20T15:35:31;94427.88;;;-0.15;100.00
6134;BME280;3098;42.678;23.364;2023-12-20T15:37:59;94387.25;;;-0.53;100.00
6134;BME280;3098;42.678;23.364;2023-12-20T15:40:28;94353.28;;;-0.68;100.00
6134;BME280;3098;42.678;23.364;2023-12-20T15:42:57;94449.22;;;-0.18;100.00
6134;BME280;3098;42.678;23.364;2023-12-20T15:45:25;94516.00;;;0.30;100.00
6134;BME280;3098;42.678;23.364;2023-12-20T15:47:54;94382.03;;;-0.58;100.00
6134;BME280;3098;42.678;23.364;2023-12-20T15:50:25;94369.50;;;-0.61;100.00
6134;BME280;3098;42.678;23.364;2023-12-20T15:52:55;94422.28;;;-0.34;100.00
6134;BME280;3098;42.678;23.364;2023-12-20T15:55:25;94389.88;;;-0.48;100.00
6134;BME280;3098;42.678;23.364;2023-12-20T15:58:04;94354.25;;;-0.84;100.00
6134;BME280;3098;42.678;23.364;2023-12-20T16:00:48;94306.81;;;-1.28;100.00
6134;BME280;3098;42.678;23.364;2023-12-20T16:06:19;94188.50;;;-2.21;100.00
6134;BME280;3098;42.678;23.364;2023-12-20T16:08:51;94416.59;;;-0.68;100.00
6134;BME280;3098;42.678;23.364;2023-12-20T16:11:25;94355.50;;;-1.24;100.00
6134;BME280;3098;42.678;23.364;2023-12-20T16:13:55;94326.41;;;-1.47;100.00
6134;BME280;3098;42.678;23.364;2023-12-20T16:17:22;94425.91;;;-0.77;100.00
6134;BME280;3098;42.678;23.364;2023-12-20T16:19:50;94508.88;;;-0.22;100.00
6134;BME280;3098;42.678;23.364;2023-12-20T16:22:18;94423.81;;;-0.80;100.00
6134;BME280;3098;42.678;23.364;2023-12-20T16:24:47;94523.41;;;-0.31;100.00
6134;BME280;3098;42.678;23.364;2023-12-20T16:27:15;94496.53;;;-0.36;100.00
6134;BME280;3098;42.678;23.364;2023-12-20T16:29:50;94459.97;;;-0.51;100.00
6134;BME280;3098;42.678;23.364;2023-12-20T16:35:12;94496.06;;;-0.28;100.00
6134;BME280;3098;42.678;23.364;2023-12-20T16:37:43;94230.31;;;-1.96;100.00
6134;BME280;3098;42.678;23.364;2023-12-20T16:40:17;94321.28;;;-1.42;100.00
6134;BME280;3098;42.678;23.364;2023-12-20T16:42:50;94495.28;;;-0.29;100.00
6134;BME280;3098;42.678;23.364;2023-12-20T16:45:19;94426.19;;;-0.73;100.00
6134;BME280;3098;42.678;23.364;2023-12-20T16:47:48;94207.53;;;-2.15;100.00
6134;BME280;3098;42.678;23.364;2023-12-20T16:50:31;94384.16;;;-1.19;100.00
6134;BME280;3098;42.678;23.364;2023-12-20T16:53:04;94429.44;;;-0.88;100.00
6134;BME280;3098;42.678;23.364;2023-12-20T16:55:39;94418.03;;;-1.13;100.00
6134;BME280;3098;42.678;23.364;2023-12-20T16:58:11;94462.84;;;-0.80;100.00
6134;BME280;3098;42.678;23.364;2023-12-20T17:00:45;94217.44;;;-2.39;100.00
6134;BME280;3098;42.678;23.364;2023-12-20T17:03:18;94498.53;;;-0.48;100.00
6134;BME280;3098;42.678;23.364;2023-12-20T17:06:06;94447.63;;;-0.93;100.00
6134;BME280;3098;42.678;23.364;2023-12-20T17:08:35;94388.38;;;-1.12;100.00
6134;BME280;3098;42.678;23.364;2023-12-20T17:11:03;94376.81;;;-1.27;100.00
6134;BME280;3098;42.678;23.364;2023-12-20T17:13:32;94398.09;;;-1.03;100.00
6134;BME280;3098;42.678;23.364;2023-12-20T17:16:01;94490.72;;;-0.48;100.00
6134;BME280;3098;42.678;23.364;2023-12-20T17:18:30;94248.75;;;-1.97;100.00
6134;BME280;3098;42.678;23.364;2023-12-20T17:21:25;94419.63;;;-0.81;100.00
6134;BME280;3098;42.678;23.364;2023-12-20T17:24:10;94205.06;;;-2.54;100.00
6134;BME280;3098;42.678;23.364;2023-12-20T17:26:43;94483.75;;;-0.38;100.00
6134;BME280;3098;42.678;23.364;2023-12-20T17:29:21;94313.72;;;-1.44;100.00
6134;BME280;3098;42.678;23.364;2023-12-20T17:32:04;94503.50;;;-0.42;100.00
6134;BME280;3098;42.678;23.364;2023-12-20T17:34:41;94486.81;;;-0.78;100.00
6134;BME280;3098;42.678;23.364;2023-12-20T17:37:17;94307.56;;;-1.91;100.00
6134;BME280;3098;42.678;23.364;2023-12-20T17:39:51;94268.38;;;-2.11;100.00
6134;BME280;3098;42.678;23.364;2023-12-20T17:42:21;94367.00;;;-1.46;100.00
6134;BME280;3098;42.678;23.364;2023-12-20T17:44:56;94342.09;;;-1.42;100.00
6134;BME280;3098;42.678;23.364;2023-12-20T17:47:31;94422.19;;;-0.86;100.00
6134;BME280;3098;42.678;23.364;2023-12-20T17:50:01;94439.63;;;-0.86;100.00
6134;BME280;3098;42.678;23.364;2023-12-20T17:55:16;94525.97;;;-0.68;100.00
6134;BME280;3098;42.678;23.364;2023-12-20T17:57:45;94242.00;;;-2.47;100.00
6134;BME280;3098;42.678;23.364;2023-12-20T18:00:18;94298.31;;;-2.04;100.00
6134;BME280;3098;42.678;23.364;2023-12-20T18:02:57;94345.56;;;-1.85;100.00
6134;BME280;3098;42.678;23.364;2023-12-20T18:05:36;94379.34;;;-1.58;100.00
6134;BME280;3098;42.678;23.364;2023-12-20T18:08:19;94519.63;;;-1.03;100.00
6134;BME280;3098;42.678;23.364;2023-12-20T18:11:24;94529.72;;;-1.07;100.00
6134;BME280;3098;42.678;23.364;2023-12-20T18:14:05;94543.38;;;-1.00;100.00
6134;BME280;3098;42.678;23.364;2023-12-20T18:16:38;94446.47;;;-1.55;100.00
6134;BME280;3098;42.678;23.364;2023-12-20T18:19:07;94441.75;;;-1.58;100.00
6134;BME280;3098;42.678;23.364;2023-12-20T18:24:08;94233.63;;;-2.97;100.00
6134;BME280;3098;42.678;23.364;2023-12-20T18:26:42;94287.25;;;-2.64;100.00
6134;BME280;3098;42.678;23.364;2023-12-20T18:29:21;94541.31;;;-1.20;100.00
6134;BME280;3098;42.678;23.364;2023-12-20T18:31:54;94430.56;;;-1.59;100.00
6134;BME280;3098;42.678;23.364;2023-12-20T18:34:23;94427.13;;;-1.64;100.00
6134;BME280;3098;42.678;23.364;2023-12-20T18:39:44;94421.09;;;-1.70;100.00
6134;BME280;3098;42.678;23.364;2023-12-20T18:42:26;94333.75;;;-2.19;100.00
6134;BME280;3098;42.678;23.364;2023-12-20T18:44:54;94424.25;;;-1.68;100.00
6134;BME280;3098;42.678;23.364;2023-12-20T18:47:22;94509.34;;;-1.15;100.00
6134;BME280;3098;42.678;23.364;2023-12-20T18:49:50;94511.91;;;-1.20;100.00
6134;BME280;3098;42.678;23.364;2023-12-20T18:52:22;94334.41;;;-2.29;100.00
6134;BME280;3098;42.678;23.364;2023-12-20T18:54:49;94448.63;;;-1.74;100.00
6134;BME280;3098;42.678;23.364;2023-12-20T18:57:17;94466.81;;;-1.52;100.00
6134;BME280;3098;42.678;23.364;2023-12-20T18:59:46;94527.13;;;-1.07;100.00
6134;BME280;3098;42.678;23.364;2023-12-20T19:02:14;94490.25;;;-1.26;100.00
6134;BME280;3098;42.678;23.364;2023-12-20T19:04:44;94474.78;;;-1.37;100.00
6134;BME280;3098;42.678;23.364;2023-12-20T19:07:12;94520.38;;;-1.08;100.00
6134;BME280;3098;42.678;23.364;2023-12-20T19:09:41;94449.69;;;-1.48;100.00
6134;BME280;3098;42.678;23.364;2023-12-20T19:12:12;94382.19;;;-1.87;100.00
6134;BME280;3098;42.678;23.364;2023-12-20T19:14:47;94322.47;;;-2.30;100.00
6134;BME280;3098;42.678;23.364;2023-12-20T19:17:14;94466.94;;;-1.42;100.00
6134;BME280;3098;42.678;23.364;2023-12-20T19:19:42;94399.53;;;-1.92;100.00
6134;BME280;3098;42.678;23.364;2023-12-20T19:22:10;94333.75;;;-2.19;100.00
6134;BME280;3098;42.678;23.364;2023-12-20T19:24:38;94406.50;;;-1.76;100.00
6134;BME280;3098;42.678;23.364;2023-12-20T19:27:10;94405.75;;;-1.71;100.00
6134;BME280;3098;42.678;23.364;2023-12-20T19:38:25;94520.38;;;-0.54;100.00
6134;BME280;3098;42.678;23.364;2023-12-20T19:40:59;94480.91;;;-1.22;100.00
6134;BME280;3098;42.678;23.364;2023-12-20T19:43:38;94432.09;;;-1.63;100.00
6134;BME280;3098;42.678;23.364;2023-12-20T19:46:08;94533.03;;;-1.17;100.00
6134;BME280;3098;42.678;23.364;2023-12-20T19:48:43;94532.03;;;-1.10;100.00
6134;BME280;3098;42.678;23.364;2023-12-20T19:51:14;94270.03;;;-2.49;100.00
6134;BME280;3098;42.678;23.364;2023-12-20T19:53:56;94503.97;;;-1.08;100.00
6134;BME280;3098;42.678;23.364;2023-12-20T19:56:27;94516.97;;;-1.08;100.00
6134;BME280;3098;42.678;23.364;2023-12-20T20:01:52;94355.53;;;-2.20;100.00
6134;BME280;3098;42.678;23.364;2023-12-20T20:04:23;94459.69;;;-1.62;100.00
6134;BME280;3098;42.678;23.364;2023-12-20T20:06:57;94275.03;;;-2.64;100.00
6134;BME280;3098;42.678;23.364;2023-12-20T20:09:31;94515.22;;;-1.03;100.00
6134;BME280;3098;42.678;23.364;2023-12-20T20:12:14;94366.91;;;-2.05;100.00
6134;BME280;3098;42.678;23.364;2023-12-20T20:14:45;94520.78;;;-1.16;100.00
6134;BME280;3098;42.678;23.364;2023-12-20T20:17:17;94263.34;;;-3.05;100.00
6134;BME280;3098;42.678;23.364;2023-12-20T20:19:50;94531.94;;;-1.21;100.00
6134;BME280;3098;42.678;23.364;2023-12-20T20:22:26;94518.13;;;-0.99;100.00
6134;BME280;3098;42.678;23.364;2023-12-20T20:24:59;94258.44;;;-2.63;100.00
6134;BME280;3098;42.678;23.364;2023-12-20T20:27:27;94263.69;;;-2.58;100.00
6134;BME280;3098;42.678;23.364;2023-12-20T20:29:58;94353.66;;;-2.03;100.00
6134;BME280;3098;42.678;23.364;2023-12-20T20:32:29;94521.50;;;-0.99;100.00
6134;BME280;3098;42.678;23.364;2023-12-20T20:35:08;94269.00;;;-2.48;100.00
6134;BME280;3098;42.678;23.364;2023-12-20T20:37:36;94434.50;;;-1.35;100.00
6134;BME280;3098;42.678;23.364;2023-12-20T20:47:51;94319.09;;;-2.04;100.00
6134;BME280;3098;42.678;23.364;2023-12-20T20:50:24;94417.56;;;-1.37;100.00